Time;durP1;ratioP1;P1;durP2;ratioP2;P2;SDS_P1;SDS_P2;PMS_P1;PMS_P2;Temp;Humidity;BMP_temperature;BMP_pressure;BME280_temperature;BME280_humidity;BME280_pressure;Samples;Min_cycle;Max_cycle;Signal;HPM_P1;HPM_P2
2022/08/23 00:01:33;;;;;;;10.07;6.45;;;;;;;19.33;91.05;99385.41;4376961;32;34444;-79
2022/08/23 00:04:05;;;;;;;11.12;6.37;;;;;;;19.78;90.01;99383.75;4377938;32;33898;-83
2022/08/23 00:06:32;;;;;;;10.15;7.00;;;;;;;19.92;89.50;99384.66;4377394;32;34260;-80
2022/08/23 00:09:00;;;;;;;11.60;6.50;;;;;;;19.94;88.46;99382.03;4377340;32;33564;-82
2022/08/23 00:11:38;;;;;;;11.52;6.57;;;;;;;19.31;91.70;99387.16;4377155;32;34602;-82
2022/08/23 00:14:18;;;;;;;11.00;7.72;;;;;;;19.11;92.58;99381.84;4377418;32;34121;-84
2022/08/23 00:16:46;;;;;;;10.05;6.55;;;;;;;18.62;97.32;99374.56;4378038;32;34809;-81
2022/08/23 00:19:15;;;;;;;11.50;6.68;;;;;;;19.32;93.42;99367.91;4377436;32;33698;-83
2022/08/23 00:21:44;;;;;;;10.68;6.85;;;;;;;19.42;91.57;99378.41;4377662;32;34616;-80
2022/08/23 00:24:12;;;;;;;12.10;6.18;;;;;;;19.47;92.93;99377.56;4377702;32;34537;-78
2022/08/23 00:27:13;;;;;;;11.00;6.65;;;;;;;20.10;88.15;99381.13;4375478;32;33513;-82
2022/08/23 00:29:46;;;;;;;10.60;7.35;;;;;;;19.40;90.29;99374.91;4338000;32;33635;-81
2022/08/23 00:32:20;;;;;;;12.77;7.65;;;;;;;20.15;87.14;99378.53;4376990;32;34060;-81
2022/08/23 00:34:47;;;;;;;14.07;8.20;;;;;;;20.25;86.12;99375.00;4377765;32;34717;-80
2022/08/23 00:37:16;;;;;;;15.40;8.32;;;;;;;19.79;89.55;99375.87;4375069;32;33941;-82
2022/08/23 00:39:44;;;;;;;14.40;8.65;;;;;;;20.54;84.58;99381.97;4363991;32;33605;-82
2022/08/23 00:47:52;;;;;;;18.48;10.15;;;;;;;18.85;97.47;99390.47;4365832;32;34116;-78
2022/08/23 00:50:27;;;;;;;17.83;10.05;;;;;;;19.44;92.54;99389.81;4362773;32;34391;-80
2022/08/23 00:53:15;;;;;;;22.70;11.60;;;;;;;19.69;89.92;99389.00;4379637;32;33910;-80
2022/08/23 00:55:45;;;;;;;18.67;10.80;;;;;;;18.74;96.42;99397.41;4377821;32;32394;-78
2022/08/23 00:58:15;;;;;;;18.73;10.52;;;;;;;19.27;93.21;99396.75;4377318;32;34578;-81
2022/08/23 01:00:44;;;;;;;17.45;11.02;;;;;;;18.94;95.51;99398.41;4362796;32;33652;-79
2022/08/23 01:03:12;;;;;;;19.05;11.50;;;;;;;18.59;99.80;99390.31;4362718;32;33154;-80
2022/08/23 01:06:10;;;;;;;18.50;12.20;;;;;;;18.59;99.07;99409.56;4364306;32;33078;-78
2022/08/23 01:08:41;;;;;;;19.65;11.85;;;;;;;19.02;97.38;99412.41;4379550;32;34157;-79
2022/08/23 01:11:15;;;;;;;22.08;12.52;;;;;;;18.99;96.91;99401.94;4376427;32;33801;-79
2022/08/23 01:13:47;;;;;;;18.80;11.18;;;;;;;18.47;100.00;99404.25;4364213;32;33800;-79
2022/08/23 01:16:23;;;;;;;22.15;12.05;;;;;;;19.02;97.17;99407.16;4362455;32;34707;-82
2022/08/23 01:18:51;;;;;;;17.45;10.93;;;;;;;20.03;88.88;99408.31;4364313;32;34041;-78
2022/08/23 01:21:30;;;;;;;17.23;10.82;;;;;;;20.39;86.21;99410.03;4379043;32;33266;-82
2022/08/23 01:24:02;;;;;;;18.73;11.32;;;;;;;20.67;84.07;99404.75;4367629;32;34408;-77
2022/08/23 01:26:34;;;;;;;20.73;11.32;;;;;;;20.79;83.31;99411.75;4364268;32;33822;-81
2022/08/23 01:29:04;;;;;;;22.15;12.73;;;;;;;19.30;91.96;99412.53;4364693;32;34795;-80
2022/08/23 01:31:33;;;;;;;19.10;11.27;;;;;;;19.05;93.50;99417.69;4363764;32;32801;-79
2022/08/23 01:34:05;;;;;;;18.42;11.12;;;;;;;20.28;87.12;99410.91;4363519;32;32578;-79
2022/08/23 01:36:34;;;;;;;18.40;11.00;;;;;;;20.65;84.55;99421.41;4361368;32;34698;-83
2022/08/23 01:39:03;;;;;;;19.87;11.48;;;;;;;20.58;83.75;99421.41;4364267;32;35970;-82
2022/08/23 01:41:31;;;;;;;18.10;11.18;;;;;;;20.16;88.06;99423.19;4375826;32;33692;-81
2022/08/23 01:43:59;;;;;;;20.65;11.70;;;;;;;20.73;83.83;99430.19;4376256;32;33742;-81
2022/08/23 01:46:27;;;;;;;17.62;10.73;;;;;;;19.77;89.07;99427.56;4376168;32;33874;-79
2022/08/23 01:48:54;;;;;;;21.02;11.10;;;;;;;20.62;84.69;99423.19;4377003;32;33831;-82
2022/08/23 01:51:23;;;;;;;16.73;11.07;;;;;;;20.32;86.40;99418.81;4376680;32;33652;-82
2022/08/23 01:53:50;;;;;;;19.92;10.82;;;;;;;20.76;82.95;99425.78;4377621;32;34661;-80
2022/08/23 01:56:20;;;;;;;20.37;11.57;;;;;;;20.66;83.29;99425.81;4377096;32;34634;-80
2022/08/23 01:59:07;;;;;;;20.85;11.50;;;;;;;20.57;83.84;99432.81;4370498;32;34712;-78
2022/08/23 02:01:37;;;;;;;21.92;11.85;;;;;;;20.36;85.04;99425.84;4363091;32;33757;-82
2022/08/23 02:04:04;;;;;;;18.98;11.95;;;;;;;20.19;85.83;99428.47;4351409;32;33862;-81
2022/08/23 02:06:32;;;;;;;24.58;12.32;;;;;;;20.05;88.00;99430.22;4375017;32;33683;-78
2022/08/23 02:09:00;;;;;;;23.73;12.55;;;;;;;19.36;92.37;99432.69;4376455;32;34783;-81
2022/08/23 02:11:40;;;;;;;25.00;13.00;;;;;;;19.29;93.83;99430.91;4379169;32;33758;-80
2022/08/23 02:14:11;;;;;;;22.87;12.23;;;;;;;19.14;94.20;99436.97;4366994;32;34674;-82
2022/08/23 02:16:43;;;;;;;22.83;12.98;;;;;;;19.24;96.16;99433.53;4376564;32;33915;-79
2022/08/23 02:19:29;;;;;;;22.42;12.18;;;;;;;18.81;97.99;99444.72;4376724;32;33877;-78
2022/08/23 02:21:57;;;;;;;23.55;12.52;;;;;;;19.27;95.82;99437.91;4378654;32;34468;-81
2022/08/23 02:24:25;;;;;;;19.73;11.75;;;;;;;20.31;87.60;99438.09;4378810;32;34670;-84
2022/08/23 02:26:55;;;;;;;21.25;12.50;;;;;;;20.47;86.20;99438.97;4378893;32;33554;-83
2022/08/23 02:29:25;;;;;;;26.02;12.88;;;;;;;20.35;87.51;99444.25;4365972;32;34236;-80
2022/08/23 02:31:55;;;;;;;23.10;12.55;;;;;;;19.63;91.41;99450.28;4377736;32;33723;-81
2022/08/23 02:34:24;;;;;;;21.98;12.85;;;;;;;18.93;98.15;99448.25;4376088;32;34256;-82
2022/08/23 02:37:08;;;;;;;25.23;14.32;;;;;;;19.23;95.65;99452.78;4382717;32;33955;-83
2022/08/23 02:39:36;;;;;;;23.58;12.70;;;;;;;19.11;95.77;99442.22;4377217;32;34119;-84
2022/08/23 02:42:07;;;;;;;22.48;11.98;;;;;;;19.98;89.65;99444.25;4360186;32;34352;-83
2022/08/23 02:44:38;;;;;;;23.20;13.05;;;;;;;19.47;92.83;99453.72;4378574;32;34663;-80
2022/08/23 02:47:07;;;;;;;23.58;12.98;;;;;;;19.46;92.51;99460.75;4378633;32;33562;-84
2022/08/23 02:49:35;;;;;;;22.90;13.23;;;;;;;19.27;94.76;99465.03;4378633;32;34163;-80
2022/08/23 02:52:05;;;;;;;22.50;12.65;;;;;;;19.28;95.38;99461.56;4377701;32;33889;-81
2022/08/23 02:54:34;;;;;;;22.70;13.18;;;;;;;19.34;94.88;99458.09;4366995;32;34618;-78
2022/08/23 02:57:02;;;;;;;26.52;13.10;;;;;;;19.05;96.79;99470.19;4376633;32;34927;-84
2022/08/23 02:59:30;;;;;;;21.85;13.25;;;;;;;19.60;94.50;99466.03;4375070;32;34885;-81
2022/08/23 03:01:58;;;;;;;23.58;12.57;;;;;;;19.57;92.87;99471.28;4377900;32;32223;-79
2022/08/23 03:04:26;;;;;;;23.70;11.63;;;;;;;19.83;90.32;99474.87;4379157;32;34591;-80
2022/08/23 03:06:54;;;;;;;25.02;13.50;;;;;;;20.22;88.09;99473.19;4372648;32;34680;-81
2022/08/23 03:09:22;;;;;;;21.20;12.68;;;;;;;19.69;90.57;99481.81;4376621;32;34185;-81
2022/08/23 03:11:50;;;;;;;23.98;12.80;;;;;;;19.36;93.67;99480.84;4378492;32;33454;-80
2022/08/23 03:14:18;;;;;;;23.40;13.68;;;;;;;19.71;92.71;99481.84;4378524;32;33378;-79
2022/08/23 03:16:46;;;;;;;21.37;12.37;;;;;;;19.01;97.10;99473.69;4376584;32;33870;-79
2022/08/23 03:19:13;;;;;;;26.85;13.90;;;;;;;19.73;92.70;99481.00;4378605;32;33978;-81
2022/08/23 03:21:42;;;;;;;21.62;12.63;;;;;;;19.42;94.69;99475.59;4374231;32;33815;-78
2022/08/23 03:24:10;;;;;;;22.13;12.75;;;;;;;19.37;94.77;99486.97;4378751;32;34126;-80
2022/08/23 03:26:43;;;;;;;20.85;12.82;;;;;;;19.34;94.62;99484.34;4378168;32;33928;-79
2022/08/23 03:29:11;;;;;;;21.87;11.23;;;;;;;19.48;93.40;99492.28;4377076;32;32386;-80
2022/08/23 03:31:41;;;;;;;21.48;12.13;;;;;;;20.39;88.00;99490.72;4356411;32;32820;-83
2022/08/23 03:34:09;;;;;;;23.58;12.75;;;;;;;20.86;84.36;99495.09;4377768;32;34419;-82
2022/08/23 03:36:37;;;;;;;19.55;11.68;;;;;;;20.97;83.56;99501.19;4371711;32;33459;-81
2022/08/23 03:39:05;;;;;;;21.90;11.27;;;;;;;21.26;81.73;99502.00;4370991;32;34375;-81
2022/08/23 03:41:33;;;;;;;20.45;11.45;;;;;;;21.23;81.64;99494.09;4369197;32;33623;-78
2022/08/23 03:44:00;;;;;;;22.95;11.95;;;;;;;21.17;81.88;99501.16;4377479;32;33946;-80
2022/08/23 03:46:29;;;;;;;22.25;12.27;;;;;;;21.19;82.04;99499.41;4378190;32;33909;-82
2022/08/23 03:49:01;;;;;;;22.13;12.25;;;;;;;20.52;86.85;99492.47;4378243;32;34416;-79
2022/08/23 03:51:30;;;;;;;20.55;12.48;;;;;;;20.91;84.28;99502.97;4379858;32;32397;-78
2022/08/23 03:53:58;;;;;;;22.50;12.00;;;;;;;20.89;84.08;99505.59;4378773;32;33862;-82
2022/08/23 03:56:31;;;;;;;22.73;12.32;;;;;;;19.56;91.65;99507.16;4364121;32;34773;-83
2022/08/23 03:59:02;;;;;;;19.65;11.98;;;;;;;19.79;92.74;99512.53;4378228;32;34942;-80
2022/08/23 04:01:30;;;;;;;24.27;14.00;;;;;;;20.69;85.38;99507.41;4376806;32;33832;-81
2022/08/23 04:03:58;;;;;;;20.05;12.55;;;;;;;20.62;85.29;99510.03;4365650;32;34401;-79
2022/08/23 04:06:28;;;;;;;26.30;13.95;;;;;;;20.82;84.14;99514.38;4377390;32;33855;-80
2022/08/23 04:08:55;;;;;;;23.02;13.27;;;;;;;20.70;84.46;99515.28;4378510;32;34087;-81
2022/08/23 04:11:24;;;;;;;27.37;13.82;;;;;;;20.77;84.53;99518.81;4375727;32;34524;-82
2022/08/23 04:13:52;;;;;;;24.65;14.20;;;;;;;20.67;85.21;99517.94;4375376;32;34507;-79
2022/08/23 04:16:20;;;;;;;23.98;14.80;;;;;;;20.52;86.09;99516.16;4377174;32;35167;-83
2022/08/23 04:18:48;;;;;;;30.75;14.95;;;;;;;19.91;90.07;99529.22;4378075;32;34444;-81
2022/08/23 04:21:21;;;;;;;26.90;14.73;;;;;;;19.53;93.77;99524.66;4376310;32;34514;-81
2022/08/23 04:23:49;;;;;;;24.83;13.05;;;;;;;20.52;87.03;99526.66;4380279;32;33951;-80
2022/08/23 04:26:16;;;;;;;22.87;13.00;;;;;;;20.56;86.65;99517.03;4377838;32;33777;-80
2022/08/23 04:28:44;;;;;;;21.25;12.85;;;;;;;20.86;84.23;99526.69;4377882;32;34949;-78
2022/08/23 04:31:12;;;;;;;25.37;14.10;;;;;;;20.61;85.91;99523.22;4377083;32;33459;-77
2022/08/23 04:33:40;;;;;;;24.85;12.90;;;;;;;19.32;94.14;99523.72;4364235;32;34806;-81
2022/08/23 04:36:08;;;;;;;21.00;11.52;;;;;;;20.39;87.71;99520.50;4376137;32;33929;-79
2022/08/23 04:38:36;;;;;;;24.98;13.30;;;;;;;20.72;84.78;99520.56;4377786;32;34739;-78
2022/08/23 04:43:51;;;;;;;23.20;13.73;;;;;;;20.22;87.43;99517.91;4375828;32;34739;-81
2022/08/23 04:46:19;;;;;;;24.85;12.73;;;;;;;20.58;86.04;99521.41;4374006;32;33622;-78
2022/08/23 04:48:47;;;;;;;20.98;12.23;;;;;;;20.32;88.46;99528.41;4376394;32;34969;-79
2022/08/23 04:51:15;;;;;;;24.90;11.90;;;;;;;20.81;84.51;99531.94;4377632;32;35105;-80
2022/08/23 04:53:43;;;;;;;22.75;11.27;;;;;;;21.01;82.59;99534.56;4377857;32;33911;-77
2022/08/23 04:56:12;;;;;;;20.30;11.55;;;;;;;21.02;82.67;99535.44;4365012;32;33750;-78
2022/08/23 04:58:40;;;;;;;19.80;12.45;;;;;;;21.09;82.18;99536.28;4377085;32;33964;-78
2022/08/23 05:01:09;;;;;;;22.92;12.65;;;;;;;19.96;88.05;99538.88;4362583;32;33789;-81
2022/08/23 05:03:38;;;;;;;20.60;11.52;;;;;;;20.01;87.84;99539.78;4376609;32;33835;-78
2022/08/23 05:06:07;;;;;;;20.67;11.98;;;;;;;20.32;87.83;99545.09;4377069;32;33758;-78
2022/08/23 05:08:34;;;;;;;19.25;11.55;;;;;;;20.72;84.46;99538.97;4377253;32;34256;-79
2022/08/23 05:11:03;;;;;;;20.23;11.93;;;;;;;20.62;85.99;99546.88;4377779;32;34452;-78
2022/08/23 05:13:33;;;;;;;17.55;11.10;;;;;;;21.02;83.25;99552.09;4377794;32;33994;-79
2022/08/23 05:16:02;;;;;;;17.25;11.18;;;;;;;21.14;82.29;99555.59;4377109;32;33215;-78
2022/08/23 05:18:30;;;;;;;19.42;10.80;;;;;;;20.35;86.70;99552.09;4376922;32;34691;-79
2022/08/23 05:20:59;;;;;;;18.58;10.60;;;;;;;20.64;86.24;99556.53;4374831;32;34504;-76
2022/08/23 05:23:26;;;;;;;16.58;10.75;;;;;;;21.47;81.41;99559.06;4352062;32;34777;-77
2022/08/23 05:26:00;;;;;;;16.73;11.02;;;;;;;20.57;86.58;99559.13;4375671;32;34711;-81
2022/08/23 05:28:31;;;;;;;16.10;10.20;;;;;;;20.50;85.21;99565.25;4376790;32;34274;-82
2022/08/23 05:31:03;;;;;;;18.35;10.98;;;;;;;21.12;82.93;99563.50;4375814;32;33808;-80
2022/08/23 05:33:33;;;;;;;19.05;11.52;;;;;;;19.83;90.47;99560.75;4350715;32;32288;-79
2022/08/23 05:36:02;;;;;;;19.95;11.82;;;;;;;19.52;94.25;99563.19;4377258;32;33885;-78
2022/08/23 05:38:30;;;;;;;21.40;11.45;;;;;;;19.84;93.09;99563.38;4378054;32;34867;-81
2022/08/23 05:41:01;;;;;;;19.98;11.18;;;;;;;20.13;90.38;99566.97;4377323;32;34519;-79
2022/08/23 05:43:32;;;;;;;20.58;12.27;;;;;;;20.60;87.65;99569.69;4377248;32;33715;-79
2022/08/23 05:46:04;;;;;;;16.90;10.45;;;;;;;20.18;90.55;99576.59;4377368;32;34538;-78
2022/08/23 05:48:33;;;;;;;20.80;12.93;;;;;;;21.07;84.41;99582.81;4378339;32;34241;-82
2022/08/23 05:51:21;;;;;;;21.10;12.18;;;;;;;19.88;91.38;99584.44;4376425;32;34499;-83
2022/08/23 05:53:50;;;;;;;24.35;13.23;;;;;;;19.63;94.32;99587.78;4376761;32;34780;-77
2022/08/23 05:56:22;;;;;;;23.85;13.05;;;;;;;19.77;93.09;99593.12;4376995;32;33938;-80
2022/08/23 05:58:54;;;;;;;26.05;13.95;;;;;;;19.33;96.62;99593.75;4377804;32;34018;-80
2022/08/23 06:01:27;;;;;;;28.52;14.18;;;;;;;19.40;96.95;99600.78;4359228;32;34434;-81
2022/08/23 06:04:03;;;;;;;24.27;14.13;;;;;;;19.55;95.71;99601.78;4375239;32;33631;-81
2022/08/23 06:06:31;;;;;;;26.75;13.95;;;;;;;19.51;96.44;99606.13;4366354;32;33790;-79
2022/08/23 06:09:07;;;;;;;25.73;13.27;;;;;;;20.11;92.42;99608.12;4376621;32;34088;-82
2022/08/23 06:11:36;;;;;;;27.87;12.63;;;;;;;20.23;90.50;99609.06;4377256;32;33741;-78
2022/08/23 06:14:06;;;;;;;25.62;13.23;;;;;;;19.98;92.51;99612.50;4377629;32;34596;-77
2022/08/23 06:16:37;;;;;;;26.55;14.18;;;;;;;19.62;94.99;99611.41;4377575;32;34538;-81
2022/08/23 06:19:06;;;;;;;23.02;12.63;;;;;;;20.06;92.79;99617.78;4377247;32;34387;-81
2022/08/23 06:21:37;;;;;;;23.50;13.62;;;;;;;20.80;87.13;99616.19;4363251;32;32932;-81
2022/08/23 06:24:06;;;;;;;24.37;13.23;;;;;;;19.98;92.19;99618.63;4377080;32;34756;-79
2022/08/23 06:26:37;;;;;;;21.23;12.80;;;;;;;20.13;91.89;99622.19;4376039;32;33479;-80
2022/08/23 06:29:10;;;;;;;25.83;13.32;;;;;;;20.20;91.30;99630.09;4375568;32;32781;-80
2022/08/23 06:31:47;;;;;;;23.70;13.38;;;;;;;19.98;92.70;99623.00;4375943;32;33552;-79
2022/08/23 06:34:25;;;;;;;28.55;13.62;;;;;;;20.05;92.50;99630.06;4376347;32;33676;-81
2022/08/23 06:36:55;;;;;;;22.80;12.90;;;;;;;20.16;92.22;99637.97;4375387;32;34606;-82
2022/08/23 06:39:28;;;;;;;21.52;12.40;;;;;;;20.14;92.17;99624.81;4374153;32;34168;-78
2022/08/23 06:41:59;;;;;;;25.48;14.32;;;;;;;20.54;89.57;99630.16;4362325;32;32086;-81
2022/08/23 06:44:28;;;;;;;22.83;12.57;;;;;;;21.08;86.74;99632.00;4375750;32;33888;-78
2022/08/23 06:46:56;;;;;;;20.92;12.43;;;;;;;21.58;83.37;99634.56;4376904;32;33883;-79
2022/08/23 06:49:26;;;;;;;20.65;12.10;;;;;;;22.30;78.86;99640.47;4375222;32;34202;-78
2022/08/23 06:51:58;;;;;;;17.90;11.50;;;;;;;22.25;78.99;99639.59;4375899;32;33061;-77
2022/08/23 06:54:30;;;;;;;21.52;12.00;;;;;;;22.38;78.58;99651.84;4380068;32;33782;-80
2022/08/23 06:56:59;;;;;;;19.58;11.40;;;;;;;22.49;77.60;99650.03;4367926;32;34512;-79
2022/08/23 06:59:27;;;;;;;21.67;11.57;;;;;;;22.78;76.50;99647.19;4376883;32;34976;-76
2022/08/23 07:01:58;;;;;;;19.55;11.43;;;;;;;22.99;75.00;99650.56;4375980;32;34399;-81
2022/08/23 07:04:32;;;;;;;20.88;11.80;;;;;;;23.06;73.79;99646.97;4376120;32;33883;-79
2022/08/23 07:07:02;;;;;;;18.40;10.48;;;;;;;22.92;74.92;99648.84;4364396;32;33937;-78
2022/08/23 07:09:30;;;;;;;19.98;11.23;;;;;;;23.04;74.85;99645.25;4378461;32;34202;-77
2022/08/23 07:11:59;;;;;;;19.75;10.45;;;;;;;22.10;78.79;99662.50;4365636;32;33906;-76
2022/08/23 07:14:27;;;;;;;18.23;11.38;;;;;;;22.82;76.14;99650.69;4379495;32;33791;-77
2022/08/23 07:16:58;;;;;;;22.45;12.13;;;;;;;22.67;76.75;99656.06;4379068;32;34149;-78
2022/08/23 07:19:28;;;;;;;20.58;12.68;;;;;;;22.38;77.56;99654.47;4378649;32;34119;-80
2022/08/23 07:21:57;;;;;;;21.48;11.80;;;;;;;21.25;84.15;99659.19;4363945;32;33622;-81
2022/08/23 07:24:26;;;;;;;21.50;12.43;;;;;;;21.63;83.04;99663.53;4378881;32;33827;-79
2022/08/23 07:27:05;;;;;;;22.48;11.98;;;;;;;22.05;81.29;99664.28;4366484;32;34590;-78
2022/08/23 07:29:35;;;;;;;20.88;12.05;;;;;;;22.12;80.68;99667.78;4378368;32;34933;-81
2022/08/23 07:32:04;;;;;;;19.52;11.77;;;;;;;21.94;82.20;99663.44;4376945;32;32618;-79
2022/08/23 07:34:33;;;;;;;21.15;12.80;;;;;;;21.79;81.58;99662.62;4378461;32;33848;-76
2022/08/23 07:37:00;;;;;;;22.25;11.65;;;;;;;21.35;83.50;99658.28;4378950;32;33817;-79
2022/08/23 07:39:30;;;;;;;22.65;12.35;;;;;;;22.14;80.74;99661.59;4378825;32;34040;-78
2022/08/23 07:42:03;;;;;;;22.13;12.60;;;;;;;21.25;85.01;99656.56;4365033;32;33671;-80
2022/08/23 07:44:52;;;;;;;20.45;12.25;;;;;;;21.61;84.54;99662.66;4378967;32;33733;-78
2022/08/23 07:47:20;;;;;;;20.08;12.18;;;;;;;22.62;78.10;99666.66;4362557;32;33754;-78
2022/08/23 07:49:48;;;;;;;19.23;11.82;;;;;;;21.86;80.61;99670.50;4363093;32;33975;-79
2022/08/23 07:52:17;;;;;;;19.75;12.02;;;;;;;21.64;82.63;99670.56;4376238;32;32421;-78
2022/08/23 07:54:45;;;;;;;20.52;11.93;;;;;;;22.48;78.82;99677.28;4378044;32;33886;-79
2022/08/23 07:57:18;;;;;;;19.33;11.63;;;;;;;21.74;80.55;99677.56;4376629;32;33947;-79
2022/08/23 07:59:47;;;;;;;18.73;11.10;;;;;;;22.36;78.46;99680.87;4377422;32;34602;-81
2022/08/23 08:02:15;;;;;;;18.00;10.75;;;;;;;23.42;74.48;99676.62;4372577;32;33486;-77
2022/08/23 08:04:44;;;;;;;16.52;10.45;;;;;;;22.52;76.81;99676.41;4376924;32;33979;-80
2022/08/23 08:07:12;;;;;;;15.95;10.10;;;;;;;22.82;75.31;99671.81;4376083;32;33826;-81
2022/08/23 08:09:48;;;;;;;16.85;9.55;;;;;;;24.44;70.18;99675.47;4375415;32;34092;-80
2022/08/23 08:12:16;;;;;;;13.82;9.10;;;;;;;25.05;66.55;99668.38;4363782;32;33550;-83
2022/08/23 08:14:47;;;;;;;15.95;9.50;;;;;;;26.21;62.66;99669.78;4377801;32;33791;-78
2022/08/23 08:17:17;;;;;;;15.98;9.57;;;;;;;25.01;65.85;99658.72;4368961;32;33407;-79
2022/08/23 08:19:45;;;;;;;14.45;9.45;;;;;;;24.12;68.26;99661.75;4375531;32;34336;-78
2022/08/23 08:22:15;;;;;;;16.15;9.68;;;;;;;23.95;70.48;99663.72;4362797;32;32749;-79
2022/08/23 08:24:45;;;;;;;15.02;9.43;;;;;;;23.76;70.82;99665.69;4364433;32;33719;-81
2022/08/23 08:27:13;;;;;;;14.48;9.68;;;;;;;23.86;70.55;99670.00;4377849;32;33650;-75
2022/08/23 08:29:42;;;;;;;14.43;8.75;;;;;;;23.95;68.75;99669.00;4376986;32;34830;-78
2022/08/23 08:32:10;;;;;;;13.60;9.55;;;;;;;24.24;68.38;99675.72;4377091;32;34358;-76
2022/08/23 08:34:41;;;;;;;14.45;9.13;;;;;;;23.99;69.40;99676.06;4376216;32;34590;-82
2022/08/23 08:37:09;;;;;;;13.32;7.80;;;;;;;24.10;68.71;99681.19;4366178;32;34222;-78
2022/08/23 08:39:44;;;;;;;12.88;8.68;;;;;;;24.41;66.95;99689.59;4374938;32;34863;-78
2022/08/23 08:42:43;;;;;;;11.50;7.07;;;;;;;25.15;63.43;99685.91;4376387;32;33587;-80
2022/08/23 08:45:15;;;;;;;11.65;7.55;;;;;;;25.74;60.61;99690.19;4383215;32;34778;-78
2022/08/23 08:47:55;;;;;;;12.40;8.38;;;;;;;24.65;63.55;99683.13;4364457;32;33869;-82
2022/08/23 08:50:32;;;;;;;11.68;5.45;;;;;;;25.19;62.72;99689.34;4375167;32;33355;-81
2022/08/23 08:53:04;;;;;;;16.50;7.62;;;;;;;26.51;59.62;99696.59;4362113;32;33653;-77
2022/08/23 08:55:41;;;;;;;11.07;6.90;;;;;;;26.92;56.61;99690.34;4352328;32;33915;-78
2022/08/23 08:58:15;;;;;;;8.70;7.03;;;;;;;27.42;55.24;99687.38;4369401;32;33962;-79
2022/08/23 09:00:45;;;;;;;10.57;6.43;;;;;;;27.34;54.86;99690.25;4362454;32;33907;-82
2022/08/23 09:03:19;;;;;;;10.80;6.82;;;;;;;27.64;54.05;99683.25;4375290;32;33610;-82
2022/08/23 09:06:12;;;;;;;8.98;6.37;;;;;;;27.94;52.85;99686.00;4377467;32;33517;-81
2022/08/23 09:09:00;;;;;;;11.75;7.18;;;;;;;28.14;53.53;99687.19;4373783;32;34443;-80
2022/08/23 09:11:53;;;;;;;10.45;6.85;;;;;;;28.35;52.51;99691.03;4367908;32;34818;-81
2022/08/23 09:14:42;;;;;;;10.98;7.15;;;;;;;28.65;51.16;99691.91;4364060;32;33046;-82
2022/08/23 09:17:18;;;;;;;10.02;6.68;;;;;;;28.00;51.39;99688.47;4377479;32;33663;-82
2022/08/23 09:19:50;;;;;;;7.65;5.37;;;;;;;28.94;49.15;99684.78;4377882;32;33983;-79
2022/08/23 09:22:27;;;;;;;9.63;6.75;;;;;;;29.12;49.29;99689.53;4363923;32;32937;-83
2022/08/23 09:24:56;;;;;;;13.20;6.50;;;;;;;26.98;54.05;99697.31;4378715;32;33633;-82
2022/08/23 09:27:25;;;;;;;10.18;6.68;;;;;;;26.68;53.94;99698.00;4375010;32;33063;-80
2022/08/23 09:30:00;;;;;;;10.43;6.75;;;;;;;26.79;52.86;99692.44;4375827;32;34000;-80
2022/08/23 09:32:34;;;;;;;10.93;6.60;;;;;;;26.27;55.60;99697.09;4360637;32;33379;-82
2022/08/23 09:35:14;;;;;;;8.40;6.07;;;;;;;27.18;53.87;99689.72;4362433;32;33291;-82
2022/08/23 09:37:53;;;;;;;9.80;5.70;;;;;;;27.88;51.96;99696.81;4357487;32;33706;-79
2022/08/23 09:40:25;;;;;;;10.25;6.15;;;;;;;28.31;51.40;99700.91;4347943;32;32423;-80
2022/08/23 09:43:12;;;;;;;11.18;6.15;;;;;;;28.32;50.66;99699.09;4361148;32;34273;-82
2022/08/23 09:45:53;;;;;;;9.35;6.30;;;;;;;28.10;51.17;99697.06;4361938;32;33352;-80
2022/08/23 09:48:38;;;;;;;9.13;6.37;;;;;;;28.07;51.48;99706.94;4358413;32;32757;-83
2022/08/23 09:51:30;;;;;;;10.30;7.57;;;;;;;28.36;49.84;99703.44;4359312;32;34728;-82
2022/08/23 09:54:11;;;;;;;10.68;6.47;;;;;;;27.35;50.87;99702.63;4361920;32;34342;-82
2022/08/23 09:56:43;;;;;;;13.40;6.40;;;;;;;28.46;48.52;99696.91;4361889;32;33595;-86
2022/08/23 09:59:30;;;;;;;8.90;6.00;;;;;;;28.20;49.46;99697.66;4362234;32;32188;-80
2022/08/23 10:01:58;;;;;;;10.02;6.37;;;;;;;28.29;48.96;99697.41;4360617;32;34806;-79
2022/08/23 10:04:54;;;;;;;9.05;6.12;;;;;;;28.22;49.29;99695.84;4361403;32;34505;-81
2022/08/23 10:07:32;;;;;;;10.65;6.85;;;;;;;27.69;50.57;99692.88;4361496;32;33681;-83
2022/08/23 10:10:24;;;;;;;10.00;6.82;;;;;;;26.67;52.80;99692.72;4357192;32;34595;-85
2022/08/23 10:12:53;;;;;;;11.60;5.87;;;;;;;26.94;52.55;99690.31;4363355;32;33744;-79
2022/08/23 10:15:42;;;;;;;12.20;6.57;;;;;;;27.57;52.26;99686.97;4361877;32;34070;-79
2022/08/23 10:18:23;;;;;;;9.25;5.62;;;;;;;28.47;48.94;99679.97;4362484;32;34111;-81
2022/08/23 10:21:03;;;;;;;8.93;6.12;;;;;;;28.63;48.91;99688.44;4361259;32;34655;-79
2022/08/23 10:23:43;;;;;;;8.50;5.90;;;;;;;29.05;47.01;99690.63;4362544;32;33369;-82
2022/08/23 10:26:21;;;;;;;9.77;6.45;;;;;;;29.33;45.70;99692.41;4361708;32;34869;-81
2022/08/23 10:31:59;;;;;;;9.02;6.30;;;;;;;27.05;53.87;99693.59;4368462;32;32306;-81
2022/08/23 10:34:54;;;;;;;10.85;7.32;;;;;;;26.66;55.48;99698.97;4365725;32;33563;-80
2022/08/23 10:37:44;;;;;;;13.35;7.40;;;;;;;25.50;59.41;99692.41;4374385;32;34322;-80
2022/08/23 10:40:20;;;;;;;11.38;7.35;;;;;;;25.42;59.98;99697.84;4375549;32;33607;-82
2022/08/23 10:42:48;;;;;;;11.20;7.62;;;;;;;24.78;60.91;99702.34;4376685;32;34680;-81
2022/08/23 10:45:24;;;;;;;9.60;6.72;;;;;;;25.02;60.17;99692.31;4379189;32;34435;-81
2022/08/23 10:48:17;;;;;;;10.43;6.85;;;;;;;26.11;56.34;99697.44;4379297;32;34165;-80
2022/08/23 10:50:58;;;;;;;10.20;7.25;;;;;;;27.02;53.69;99691.00;4378326;32;33542;-82
2022/08/23 10:53:33;;;;;;;9.23;6.65;;;;;;;27.08;52.86;99690.84;4365882;32;33501;-80
2022/08/23 10:56:03;;;;;;;11.18;6.40;;;;;;;27.51;51.14;99692.47;4376663;32;34603;-78
2022/08/23 10:58:54;;;;;;;9.05;7.05;;;;;;;27.33;51.76;99688.47;4376094;32;33983;-82
2022/08/23 11:02:02;;;;;;;11.85;7.95;;;;;;;27.42;52.46;99696.22;4368929;32;33916;-78
2022/08/23 11:04:37;;;;;;;13.10;7.57;;;;;;;27.82;51.62;99696.97;4378457;32;33735;-80
2022/08/23 11:07:22;;;;;;;13.85;9.93;;;;;;;27.98;50.92;99698.28;4359610;32;33338;-84
2022/08/23 11:10:16;;;;;;;9.15;6.30;;;;;;;28.25;50.21;99695.75;4373430;32;34082;-81
2022/08/23 11:12:52;;;;;;;8.82;6.25;;;;;;;28.09;49.96;99690.00;4341089;32;34275;-79
2022/08/23 11:15:28;;;;;;;10.80;7.25;;;;;;;26.96;53.62;99685.84;4349524;32;32261;-82
2022/08/23 11:17:59;;;;;;;8.63;6.10;;;;;;;26.53;53.73;99689.47;4348869;32;34811;-77
2022/08/23 11:20:49;;;;;;;9.13;6.15;;;;;;;25.99;57.29;99691.47;4377259;32;34243;-82
2022/08/23 11:23:17;;;;;;;10.15;6.35;;;;;;;25.31;57.92;99692.72;4377473;32;33599;-85
2022/08/23 11:25:45;;;;;;;11.50;7.07;;;;;;;25.39;58.57;99692.56;4374653;32;34550;-79
2022/08/23 11:28:25;;;;;;;10.23;6.30;;;;;;;25.35;56.71;99690.88;4375803;32;34798;-82
2022/08/23 11:31:06;;;;;;;7.50;5.65;;;;;;;26.16;56.82;99691.16;4376195;32;34268;-85
2022/08/23 11:33:59;;;;;;;8.65;6.20;;;;;;;27.32;54.78;99685.88;4376007;32;33872;-83
2022/08/23 11:36:28;;;;;;;9.95;6.43;;;;;;;27.43;52.28;99689.13;4363913;32;34172;-80
2022/08/23 11:38:56;;;;;;;9.68;6.62;;;;;;;27.12;53.06;99683.69;4371224;32;34331;-82
2022/08/23 11:41:29;;;;;;;9.40;6.80;;;;;;;25.83;58.10;99688.22;4377129;32;34836;-80
2022/08/23 11:44:06;;;;;;;10.13;6.53;;;;;;;25.40;59.62;99681.09;4362372;32;34347;-79
2022/08/23 11:46:55;;;;;;;11.12;6.85;;;;;;;25.50;58.89;99689.75;4364966;32;32503;-80
2022/08/23 11:49:29;;;;;;;9.95;6.85;;;;;;;25.75;59.10;99694.56;4376553;32;34344;-81
2022/08/23 11:52:15;;;;;;;10.18;6.68;;;;;;;26.16;57.20;99691.16;4376856;32;33929;-81
2022/08/23 11:55:06;;;;;;;11.63;7.85;;;;;;;25.49;59.79;99688.84;4377243;32;33173;-82
2022/08/23 11:57:45;;;;;;;11.75;8.23;;;;;;;25.01;61.21;99691.41;4387776;32;34002;-80
2022/08/23 12:00:19;;;;;;;10.45;7.10;;;;;;;25.08;61.34;99695.72;4376040;32;34625;-84